sensor_id;sensor_type;location;lat;lon;timestamp;pressure;altitude;pressure_sealevel;temperature;humidity
45793;BME280;31495;42.740;22.908;2023-05-07T00:00:03;93311.34;;;10.99;67.26
45793;BME280;31495;42.740;22.908;2023-05-07T00:01:06;93289.06;;;10.91;66.91
45793;BME280;31495;42.740;22.908;2023-05-07T00:02:06;93271.44;;;10.75;66.75
45793;BME280;31495;42.740;22.908;2023-05-07T00:03:07;93304.59;;;10.91;66.76
45793;BME280;31495;42.740;22.908;2023-05-07T00:04:06;93287.75;;;10.75;66.81
45793;BME280;31495;42.740;22.908;2023-05-07T00:05:07;93309.00;;;10.91;66.69
45793;BME280;31495;42.740;22.908;2023-05-07T00:06:07;93292.88;;;10.89;66.79
45793;BME280;31495;42.740;22.908;2023-05-07T00:07:06;93275.63;;;10.76;67.04
45793;BME280;31495;42.740;22.908;2023-05-07T00:08:05;93289.13;;;10.84;67.03
45793;BME280;31495;42.740;22.908;2023-05-07T00:09:06;93308.94;;;11.04;66.42
45793;BME280;31495;42.740;22.908;2023-05-07T00:10:06;93300.88;;;10.87;66.50
45793;BME280;31495;42.740;22.908;2023-05-07T00:11:06;93309.78;;;10.91;66.48
45793;BME280;31495;42.740;22.908;2023-05-07T00:12:06;93266.53;;;10.60;66.31
45793;BME280;31495;42.740;22.908;2023-05-07T00:13:05;93303.88;;;10.84;66.30
45793;BME280;31495;42.740;22.908;2023-05-07T00:14:05;93296.75;;;10.73;66.65
45793;BME280;31495;42.740;22.908;2023-05-07T00:15:05;93310.81;;;10.83;66.80
45793;BME280;31495;42.740;22.908;2023-05-07T00:16:05;93281.09;;;10.61;66.81
45793;BME280;31495;42.740;22.908;2023-05-07T00:17:04;93302.75;;;10.66;66.99
45793;BME280;31495;42.740;22.908;2023-05-07T00:18:04;93308.13;;;10.65;67.34
45793;BME280;31495;42.740;22.908;2023-05-07T00:19:03;93305.31;;;10.66;67.64
45793;BME280;31495;42.740;22.908;2023-05-07T00:20:04;93301.78;;;10.61;67.89
45793;BME280;31495;42.740;22.908;2023-05-07T00:21:04;93308.69;;;10.67;67.37
45793;BME280;31495;42.740;22.908;2023-05-07T00:22:03;93302.31;;;10.70;67.48
45793;BME280;31495;42.740;22.908;2023-05-07T00:23:03;93302.94;;;10.65;67.65
45793;BME280;31495;42.740;22.908;2023-05-07T00:24:02;93305.34;;;10.60;67.95
45793;BME280;31495;42.740;22.908;2023-05-07T00:25:02;93307.34;;;10.58;67.95
45793;BME280;31495;42.740;22.908;2023-05-07T00:26:03;93308.56;;;10.55;67.71
45793;BME280;31495;42.740;22.908;2023-05-07T00:27:02;93276.38;;;10.38;67.69
45793;BME280;31495;42.740;22.908;2023-05-07T00:28:02;93314.28;;;10.64;66.96
45793;BME280;31495;42.740;22.908;2023-05-07T00:29:03;93302.94;;;10.65;66.78
45793;BME280;31495;42.740;22.908;2023-05-07T00:30:03;93289.66;;;10.55;66.94
45793;BME280;31495;42.740;22.908;2023-05-07T00:31:02;93303.78;;;10.52;66.73
45793;BME280;31495;42.740;22.908;2023-05-07T00:32:02;93308.97;;;10.52;66.65
45793;BME280;31495;42.740;22.908;2023-05-07T00:33:01;93305.00;;;10.50;66.73
45793;BME280;31495;42.740;22.908;2023-05-07T00:34:01;93283.75;;;10.27;67.16
45793;BME280;31495;42.740;22.908;2023-05-07T00:35:00;93283.53;;;10.29;66.83
45793;BME280;31495;42.740;22.908;2023-05-07T00:36:00;93295.47;;;10.43;66.50
45793;BME280;31495;42.740;22.908;2023-05-07T00:37:01;93312.34;;;10.46;66.73
45793;BME280;31495;42.740;22.908;2023-05-07T00:38:01;93308.41;;;10.43;66.75
45793;BME280;31495;42.740;22.908;2023-05-07T00:39:00;93285.53;;;10.27;66.81
45793;BME280;31495;42.740;22.908;2023-05-07T00:40:02;93279.59;;;10.26;66.65
45793;BME280;31495;42.740;22.908;2023-05-07T00:41:04;93312.56;;;10.44;66.62
45793;BME280;31495;42.740;22.908;2023-05-07T00:42:03;93279.78;;;10.25;66.57
45793;BME280;31495;42.740;22.908;2023-05-07T00:43:03;93294.09;;;10.27;66.69
45793;BME280;31495;42.740;22.908;2023-05-07T00:44:02;93304.44;;;10.34;66.81
45793;BME280;31495;42.740;22.908;2023-05-07T00:45:02;93295.09;;;10.26;66.68
45793;BME280;31495;42.740;22.908;2023-05-07T00:46:02;93308.81;;;10.27;66.80
45793;BME280;31495;42.740;22.908;2023-05-07T00:47:03;93314.22;;;10.19;67.49
45793;BME280;31495;42.740;22.908;2023-05-07T00:48:04;93285.38;;;10.02;67.92
45793;BME280;31495;42.740;22.908;2023-05-07T00:49:04;93257.81;;;9.75;67.80
45793;BME280;31495;42.740;22.908;2023-05-07T00:50:04;93271.31;;;9.84;67.66
45793;BME280;31495;42.740;22.908;2023-05-07T00:51:04;93311.47;;;10.07;67.80
45793;BME280;31495;42.740;22.908;2023-05-07T00:52:05;93302.69;;;10.01;67.58
45793;BME280;31495;42.740;22.908;2023-05-07T00:53:06;93288.19;;;9.87;67.58
45793;BME280;31495;42.740;22.908;2023-05-07T00:54:06;93248.88;;;9.65;67.74
45793;BME280;31495;42.740;22.908;2023-05-07T00:55:06;93281.06;;;9.75;67.86
45793;BME280;31495;42.740;22.908;2023-05-07T00:56:06;93266.00;;;9.66;67.70
45793;BME280;31495;42.740;22.908;2023-05-07T00:57:06;93281.06;;;9.75;67.58
45793;BME280;31495;42.740;22.908;2023-05-07T00:58:06;93312.25;;;10.01;67.56
45793;BME280;31495;42.740;22.908;2023-05-07T00:59:06;93313.03;;;10.01;67.48
45793;BME280;31495;42.740;22.908;2023-05-07T01:00:06;93314.44;;;10.04;67.44
45793;BME280;31495;42.740;22.908;2023-05-07T01:01:07;93271.56;;;9.69;67.57
45793;BME280;31495;42.740;22.908;2023-05-07T01:02:07;93278.06;;;9.79;67.69
45793;BME280;31495;42.740;22.908;2023-05-07T01:03:07;93291.41;;;9.89;67.44
45793;BME280;31495;42.740;22.908;2023-05-07T01:04:06;93296.56;;;9.96;67.18
45793;BME280;31495;42.740;22.908;2023-05-07T01:05:08;93267.34;;;9.75;67.03
45793;BME280;31495;42.740;22.908;2023-05-07T01:06:09;93280.25;;;9.88;67.02
45793;BME280;31495;42.740;22.908;2023-05-07T01:07:12;93275.28;;;9.80;67.00
45793;BME280;31495;42.740;22.908;2023-05-07T01:08:12;93252.47;;;9.64;66.88
45793;BME280;31495;42.740;22.908;2023-05-07T01:09:12;93277.88;;;9.80;67.11
45793;BME280;31495;42.740;22.908;2023-05-07T01:10:13;93310.25;;;9.96;67.35
45793;BME280;31495;42.740;22.908;2023-05-07T01:11:14;93290.22;;;9.71;67.50
45793;BME280;31495;42.740;22.908;2023-05-07T01:12:13;93307.69;;;9.83;67.50
45793;BME280;31495;42.740;22.908;2023-05-07T01:13:14;93299.75;;;9.84;67.39
45793;BME280;31495;42.740;22.908;2023-05-07T01:14:14;93308.09;;;9.86;67.28
45793;BME280;31495;42.740;22.908;2023-05-07T01:15:14;93284.66;;;9.61;67.33
45793;BME280;31495;42.740;22.908;2023-05-07T01:16:14;93297.78;;;9.73;67.63
45793;BME280;31495;42.740;22.908;2023-05-07T01:17:13;93316.06;;;9.71;67.90
45793;BME280;31495;42.740;22.908;2023-05-07T01:18:13;93320.63;;;9.83;67.49
45793;BME280;31495;42.740;22.908;2023-05-07T01:19:14;93325.59;;;9.78;67.55
45793;BME280;31495;42.740;22.908;2023-05-07T01:20:17;93321.59;;;9.82;67.36
45793;BME280;31495;42.740;22.908;2023-05-07T01:21:18;93323.00;;;9.84;67.36
45793;BME280;31495;42.740;22.908;2023-05-07T01:22:32;93316.06;;;9.71;67.38
45793;BME280;31495;42.740;22.908;2023-05-07T01:23:32;93311.47;;;9.67;67.57
45793;BME280;31495;42.740;22.908;2023-05-07T01:24:33;93274.75;;;9.38;67.48
45793;BME280;31495;42.740;22.908;2023-05-07T01:25:33;93320.84;;;9.68;67.59
45793;BME280;31495;42.740;22.908;2023-05-07T01:26:33;93288.44;;;9.45;67.39
45793;BME280;31495;42.740;22.908;2023-05-07T01:27:33;93322.00;;;9.65;67.30
45793;BME280;31495;42.740;22.908;2023-05-07T01:28:34;93328.19;;;9.64;67.11
45793;BME280;31495;42.740;22.908;2023-05-07T01:29:33;93290.63;;;9.48;67.06
45793;BME280;31495;42.740;22.908;2023-05-07T01:30:34;93269.78;;;9.36;66.94
45793;BME280;31495;42.740;22.908;2023-05-07T01:31:36;93317.03;;;9.57;67.19
45793;BME280;31495;42.740;22.908;2023-05-07T01:32:45;93315.66;;;9.61;67.16
45793;BME280;31495;42.740;22.908;2023-05-07T01:33:48;93248.91;;;9.18;67.21
45793;BME280;31495;42.740;22.908;2023-05-07T01:34:49;93316.66;;;9.60;67.26
45793;BME280;31495;42.740;22.908;2023-05-07T01:35:53;93320.03;;;9.54;66.92
45793;BME280;31495;42.740;22.908;2023-05-07T01:36:54;93321.22;;;9.58;66.96
45793;BME280;31495;42.740;22.908;2023-05-07T01:37:55;93271.34;;;9.31;66.78
45793;BME280;31495;42.740;22.908;2023-05-07T01:38:55;93295.41;;;9.38;66.89
45793;BME280;31495;42.740;22.908;2023-05-07T01:39:57;93314.66;;;9.49;67.08
45793;BME280;31495;42.740;22.908;2023-05-07T01:40:57;93314.47;;;9.57;66.91
45793;BME280;31495;42.740;22.908;2023-05-07T01:41:58;93299.75;;;9.51;66.75
45793;BME280;31495;42.740;22.908;2023-05-07T01:42:58;93315.25;;;9.51;66.75
45793;BME280;31495;42.740;22.908;2023-05-07T01:43:59;93223.66;;;8.87;67.01
45793;BME280;31495;42.740;22.908;2023-05-07T01:44:59;93293.59;;;9.32;66.99
45793;BME280;31495;42.740;22.908;2023-05-07T01:45:59;93269.56;;;9.18;66.90
45793;BME280;31495;42.740;22.908;2023-05-07T01:47:01;93291.59;;;9.14;67.43
45793;BME280;31495;42.740;22.908;2023-05-07T01:48:02;93309.50;;;9.35;67.30
45793;BME280;31495;42.740;22.908;2023-05-07T01:49:02;93282.44;;;9.11;67.63
45793;BME280;31495;42.740;22.908;2023-05-07T01:50:05;93288.44;;;9.25;67.36
45793;BME280;31495;42.740;22.908;2023-05-07T01:51:05;93280.69;;;9.25;67.39
45793;BME280;31495;42.740;22.908;2023-05-07T01:52:05;93272.75;;;9.20;66.91
45793;BME280;31495;42.740;22.908;2023-05-07T01:53:06;93293.81;;;9.30;67.12
45793;BME280;31495;42.740;22.908;2023-05-07T01:54:05;93281.09;;;9.22;67.24
45793;BME280;31495;42.740;22.908;2023-05-07T01:55:06;93305.72;;;9.38;67.12
45793;BME280;31495;42.740;22.908;2023-05-07T01:56:06;93269.53;;;9.11;67.38
45793;BME280;31495;42.740;22.908;2023-05-07T01:57:06;93311.28;;;9.42;67.11
45793;BME280;31495;42.740;22.908;2023-05-07T01:58:06;93296.59;;;9.35;66.57
45793;BME280;31495;42.740;22.908;2023-05-07T01:59:06;93281.09;;;9.22;67.02
45793;BME280;31495;42.740;22.908;2023-05-07T02:00:06;93296.19;;;9.18;67.40
45793;BME280;31495;42.740;22.908;2023-05-07T02:01:05;93249.84;;;8.83;67.88
45793;BME280;31495;42.740;22.908;2023-05-07T02:02:04;93289.81;;;9.14;67.89
45793;BME280;31495;42.740;22.908;2023-05-07T02:03:04;93247.50;;;8.89;67.71
45793;BME280;31495;42.740;22.908;2023-05-07T02:04:04;93194.41;;;8.46;67.96
45793;BME280;31495;42.740;22.908;2023-05-07T02:05:03;93277.66;;;9.01;67.83
45793;BME280;31495;42.740;22.908;2023-05-07T02:06:03;93281.25;;;9.00;67.95
45793;BME280;31495;42.740;22.908;2023-05-07T02:07:03;93305.28;;;9.08;67.92
45793;BME280;31495;42.740;22.908;2023-05-07T02:08:02;93264.94;;;8.87;67.90
45793;BME280;31495;42.740;22.908;2023-05-07T02:09:02;93271.31;;;8.97;67.94
45793;BME280;31495;42.740;22.908;2023-05-07T02:10:02;93294.38;;;9.12;68.05
45793;BME280;31495;42.740;22.908;2023-05-07T02:11:01;93303.72;;;9.13;68.18
45793;BME280;31495;42.740;22.908;2023-05-07T02:12:01;93291.38;;;8.95;68.18
45793;BME280;31495;42.740;22.908;2023-05-07T02:13:00;93297.16;;;9.04;68.30
45793;BME280;31495;42.740;22.908;2023-05-07T02:14:01;93288.63;;;9.04;68.04
45793;BME280;31495;42.740;22.908;2023-05-07T02:15:00;93301.31;;;9.05;68.13
45793;BME280;31495;42.740;22.908;2023-05-07T02:16:00;93296.34;;;8.97;68.37
45793;BME280;31495;42.740;22.908;2023-05-07T02:16:59;93272.88;;;8.85;68.48
45793;BME280;31495;42.740;22.908;2023-05-07T02:18:04;93307.84;;;9.01;68.33
45793;BME280;31495;42.740;22.908;2023-05-07T02:19:05;93280.63;;;8.92;68.21
45793;BME280;31495;42.740;22.908;2023-05-07T02:20:05;93286.59;;;8.86;68.29
45793;BME280;31495;42.740;22.908;2023-05-07T02:21:06;93284.03;;;8.92;67.84
45793;BME280;31495;42.740;22.908;2023-05-07T02:22:06;93295.94;;;9.07;67.83
45793;BME280;31495;42.740;22.908;2023-05-07T02:23:08;93264.94;;;8.93;67.40
45793;BME280;31495;42.740;22.908;2023-05-07T02:24:07;93254.03;;;8.85;67.42
45793;BME280;31495;42.740;22.908;2023-05-07T02:25:07;93268.56;;;8.99;67.52
45793;BME280;31495;42.740;22.908;2023-05-07T02:26:07;93289.00;;;9.07;67.57
45793;BME280;31495;42.740;22.908;2023-05-07T02:27:06;93253.44;;;8.82;67.73
45793;BME280;31495;42.740;22.908;2023-05-07T02:28:05;93239.72;;;8.75;67.91
45793;BME280;31495;42.740;22.908;2023-05-07T02:29:05;93288.19;;;9.00;68.09
45793;BME280;31495;42.740;22.908;2023-05-07T02:30:05;93288.81;;;8.95;68.23
45793;BME280;31495;42.740;22.908;2023-05-07T02:31:04;93234.13;;;8.58;68.38
45793;BME280;31495;42.740;22.908;2023-05-07T02:32:04;93228.97;;;8.58;68.19
45793;BME280;31495;42.740;22.908;2023-05-07T02:33:03;93253.22;;;8.71;68.28
45793;BME280;31495;42.740;22.908;2023-05-07T02:34:03;93211.63;;;8.39;68.46
45793;BME280;31495;42.740;22.908;2023-05-07T02:35:03;93264.53;;;8.70;68.71
45793;BME280;31495;42.740;22.908;2023-05-07T02:36:09;93297.31;;;8.89;68.52
45793;BME280;31495;42.740;22.908;2023-05-07T02:37:09;93297.69;;;8.86;68.38
45793;BME280;31495;42.740;22.908;2023-05-07T02:38:09;93285.16;;;8.70;68.71
45793;BME280;31495;42.740;22.908;2023-05-07T02:39:09;93262.09;;;8.55;68.66
45793;BME280;31495;42.740;22.908;2023-05-07T02:40:09;93255.72;;;8.51;68.27
45793;BME280;31495;42.740;22.908;2023-05-07T02:41:09;93270.44;;;8.57;68.53
45793;BME280;31495;42.740;22.908;2023-05-07T02:42:09;93223.25;;;8.21;68.80
45793;BME280;31495;42.740;22.908;2023-05-07T02:43:09;93301.44;;;8.77;68.56
45793;BME280;31495;42.740;22.908;2023-05-07T02:44:08;93278.59;;;8.67;68.22
45793;BME280;31495;42.740;22.908;2023-05-07T02:45:08;93302.47;;;8.82;68.07
45793;BME280;31495;42.740;22.908;2023-05-07T02:46:08;93281.38;;;8.72;68.21
45793;BME280;31495;42.740;22.908;2023-05-07T02:47:08;93297.28;;;8.76;68.06
45793;BME280;31495;42.740;22.908;2023-05-07T02:48:08;93280.78;;;8.70;68.24
45793;BME280;31495;42.740;22.908;2023-05-07T02:49:08;93292.91;;;8.70;68.40
45793;BME280;31495;42.740;22.908;2023-05-07T02:50:07;93285.13;;;8.63;68.55
45793;BME280;31495;42.740;22.908;2023-05-07T02:51:07;93291.88;;;8.64;68.75
45793;BME280;31495;42.740;22.908;2023-05-07T02:52:06;93286.31;;;8.67;68.79
45793;BME280;31495;42.740;22.908;2023-05-07T02:53:06;93259.13;;;8.51;68.82
45793;BME280;31495;42.740;22.908;2023-05-07T02:54:05;93280.97;;;8.62;69.12
45793;BME280;31495;42.740;22.908;2023-05-07T02:55:05;93279.03;;;8.71;68.63
45793;BME280;31495;42.740;22.908;2023-05-07T02:56:06;93283.16;;;8.65;68.84
45793;BME280;31495;42.740;22.908;2023-05-07T02:57:05;93269.44;;;8.58;69.38
45793;BME280;31495;42.740;22.908;2023-05-07T02:58:05;93289.72;;;8.68;68.94
45793;BME280;31495;42.740;22.908;2023-05-07T02:59:05;93272.59;;;8.53;69.26
45793;BME280;31495;42.740;22.908;2023-05-07T03:00:31;93274.19;;;8.54;68.97
45793;BME280;31495;42.740;22.908;2023-05-07T03:01:30;93299.59;;;8.64;68.39
45793;BME280;31495;42.740;22.908;2023-05-07T03:02:30;93268.41;;;8.45;68.59
45793;BME280;31495;42.740;22.908;2023-05-07T03:03:29;93273.59;;;8.52;68.33
45793;BME280;31495;42.740;22.908;2023-05-07T03:04:29;93291.09;;;8.63;68.80
45793;BME280;31495;42.740;22.908;2023-05-07T03:05:28;93282.13;;;8.53;69.01
45793;BME280;31495;42.740;22.908;2023-05-07T03:06:28;93223.25;;;8.15;68.65
45793;BME280;31495;42.740;22.908;2023-05-07T03:07:27;93283.31;;;8.50;68.51
45793;BME280;31495;42.740;22.908;2023-05-07T03:08:27;93295.66;;;8.61;68.83
45793;BME280;31495;42.740;22.908;2023-05-07T03:09:27;93280.50;;;8.45;68.57
45793;BME280;31495;42.740;22.908;2023-05-07T03:10:26;93287.25;;;8.46;68.24
45793;BME280;31495;42.740;22.908;2023-05-07T03:11:25;93306.94;;;8.60;67.81
45793;BME280;31495;42.740;22.908;2023-05-07T03:12:25;93303.97;;;8.63;67.39
45793;BME280;31495;42.740;22.908;2023-05-07T03:13:24;93285.50;;;8.53;67.13
45793;BME280;31495;42.740;22.908;2023-05-07T03:14:24;93308.53;;;8.61;67.42
45793;BME280;31495;42.740;22.908;2023-05-07T03:15:23;93309.72;;;8.59;67.65
45793;BME280;31495;42.740;22.908;2023-05-07T03:16:23;93292.53;;;8.38;68.13
45793;BME280;31495;42.740;22.908;2023-05-07T03:17:22;93264.28;;;8.16;67.94
45793;BME280;31495;42.740;22.908;2023-05-07T03:18:22;93286.38;;;8.32;68.17
45793;BME280;31495;42.740;22.908;2023-05-07T03:19:21;93271.63;;;8.19;67.99
45793;BME280;31495;42.740;22.908;2023-05-07T03:20:21;93287.97;;;8.33;67.65
45793;BME280;31495;42.740;22.908;2023-05-07T03:21:20;93284.19;;;8.36;67.70
45793;BME280;31495;42.740;22.908;2023-05-07T03:22:20;93306.09;;;8.46;67.79
45793;BME280;31495;42.740;22.908;2023-05-07T03:23:19;93276.06;;;8.32;67.79
45793;BME280;31495;42.740;22.908;2023-05-07T03:24:19;93312.84;;;8.48;67.68
45793;BME280;31495;42.740;22.908;2023-05-07T03:25:19;93297.09;;;8.36;67.62
45793;BME280;31495;42.740;22.908;2023-05-07T03:26:19;93232.09;;;7.92;68.36
45793;BME280;31495;42.740;22.908;2023-05-07T03:27:19;93249.72;;;7.95;68.03
45793;BME280;31495;42.740;22.908;2023-05-07T03:28:18;93320.69;;;8.33;67.94
45793;BME280;31495;42.740;22.908;2023-05-07T03:29:18;93302.59;;;8.26;67.71
45793;BME280;31495;42.740;22.908;2023-05-07T03:30:17;93282.69;;;8.06;68.16
45793;BME280;31495;42.740;22.908;2023-05-07T03:31:17;93243.34;;;7.84;68.41
45793;BME280;31495;42.740;22.908;2023-05-07T03:32:16;93270.97;;;8.04;68.71
45793;BME280;31495;42.740;22.908;2023-05-07T03:33:16;93313.72;;;8.26;68.40
45793;BME280;31495;42.740;22.908;2023-05-07T03:34:15;93324.28;;;8.38;68.65
45793;BME280;31495;42.740;22.908;2023-05-07T03:35:16;93319.69;;;8.34;68.68
45793;BME280;31495;42.740;22.908;2023-05-07T03:36:15;93302.72;;;8.11;68.34
45793;BME280;31495;42.740;22.908;2023-05-07T03:37:15;93328.00;;;8.29;68.43
45793;BME280;31495;42.740;22.908;2023-05-07T03:38:14;93332.97;;;8.31;68.98
45793;BME280;31495;42.740;22.908;2023-05-07T03:39:13;93321.47;;;8.26;68.99
45793;BME280;31495;42.740;22.908;2023-05-07T03:40:13;93254.75;;;7.75;68.24
45793;BME280;31495;42.740;22.908;2023-05-07T03:41:12;93339.72;;;8.32;68.26
45793;BME280;31495;42.740;22.908;2023-05-07T03:42:13;93326.81;;;8.25;68.01
45793;BME280;31495;42.740;22.908;2023-05-07T03:43:12;93319.03;;;8.18;68.26
45793;BME280;31495;42.740;22.908;2023-05-07T03:44:12;93325.59;;;8.27;68.49
45793;BME280;31495;42.740;22.908;2023-05-07T03:45:11;93301.19;;;8.17;68.77
45793;BME280;31495;42.740;22.908;2023-05-07T03:46:10;93324.25;;;8.32;69.16
45793;BME280;31495;42.740;22.908;2023-05-07T03:47:10;93334.59;;;8.38;69.48
45793;BME280;31495;42.740;22.908;2023-05-07T03:48:09;93333.19;;;8.36;69.38
45793;BME280;31495;42.740;22.908;2023-05-07T03:49:09;93281.91;;;8.13;69.25
45793;BME280;31495;42.740;22.908;2023-05-07T03:50:09;93345.59;;;8.54;69.48
45793;BME280;31495;42.740;22.908;2023-05-07T03:51:10;93325.97;;;8.53;69.57
45793;BME280;31495;42.740;22.908;2023-05-07T03:52:09;93328.56;;;8.53;69.81
45793;BME280;31495;42.740;22.908;2023-05-07T03:53:09;93313.16;;;8.38;70.12
45793;BME280;31495;42.740;22.908;2023-05-07T03:54:08;93317.81;;;8.49;70.12
45793;BME280;31495;42.740;22.908;2023-05-07T03:55:08;93291.75;;;8.37;70.02
45793;BME280;31495;42.740;22.908;2023-05-07T03:56:08;93302.47;;;8.41;70.20
45793;BME280;31495;42.740;22.908;2023-05-07T03:57:07;93292.53;;;8.38;70.75
45793;BME280;31495;42.740;22.908;2023-05-07T03:58:06;93310.91;;;8.56;70.99
45793;BME280;31495;42.740;22.908;2023-05-07T03:59:06;93315.31;;;8.62;70.97
45793;BME280;31495;42.740;22.908;2023-05-07T04:00:06;93322.88;;;8.71;71.09
45793;BME280;31495;42.740;22.908;2023-05-07T04:01:05;93325.66;;;8.76;71.45
45793;BME280;31495;42.740;22.908;2023-05-07T04:02:06;93318.72;;;8.76;71.73
45793;BME280;31495;42.740;22.908;2023-05-07T04:03:06;93319.50;;;8.77;71.75
45793;BME280;31495;42.740;22.908;2023-05-07T04:04:06;93300.22;;;8.66;72.10
45793;BME280;31495;42.740;22.908;2023-05-07T04:05:06;93346.56;;;9.01;72.01
45793;BME280;31495;42.740;22.908;2023-05-07T04:06:05;93344.97;;;9.07;71.70
45793;BME280;31495;42.740;22.908;2023-05-07T04:07:05;93309.63;;;8.87;71.86
45793;BME280;31495;42.740;22.908;2023-05-07T04:08:04;93340.66;;;9.14;71.80
45793;BME280;31495;42.740;22.908;2023-05-07T04:09:04;93335.50;;;9.20;71.48
45793;BME280;31495;42.740;22.908;2023-05-07T04:10:04;93351.00;;;9.27;71.37
45793;BME280;31495;42.740;22.908;2023-05-07T04:11:04;93330.91;;;9.16;71.36
45793;BME280;31495;42.740;22.908;2023-05-07T04:12:03;93350.00;;;9.28;71.36
45793;BME280;31495;42.740;22.908;2023-05-07T04:13:03;93319.41;;;9.12;71.42
45793;BME280;31495;42.740;22.908;2023-05-07T04:14:02;93354.78;;;9.31;71.16
45793;BME280;31495;42.740;22.908;2023-05-07T04:15:03;93342.84;;;9.30;71.02
45793;BME280;31495;42.740;22.908;2023-05-07T04:16:04;93286.63;;;8.99;70.86
45793;BME280;31495;42.740;22.908;2023-05-07T04:17:04;93332.31;;;9.25;70.82
45793;BME280;31495;42.740;22.908;2023-05-07T04:18:05;93342.84;;;9.30;70.97
45793;BME280;31495;42.740;22.908;2023-05-07T04:19:04;93332.31;;;9.25;71.07
45793;BME280;31495;42.740;22.908;2023-05-07T04:20:05;93309.06;;;9.05;71.45
45793;BME280;31495;42.740;22.908;2023-05-07T04:21:13;93358.38;;;9.44;71.53
45793;BME280;31495;42.740;22.908;2023-05-07T04:22:13;93328.72;;;9.26;71.25
45793;BME280;31495;42.740;22.908;2023-05-07T04:23:12;93337.31;;;9.33;71.41
45793;BME280;31495;42.740;22.908;2023-05-07T04:24:11;93346.84;;;9.40;71.75
45793;BME280;31495;42.740;22.908;2023-05-07T04:25:11;93324.41;;;9.33;71.70
45793;BME280;31495;42.740;22.908;2023-05-07T04:26:10;93368.31;;;9.67;71.43
45793;BME280;31495;42.740;22.908;2023-05-07T04:27:10;93336.34;;;9.54;71.54
45793;BME280;31495;42.740;22.908;2023-05-07T04:28:09;93358.56;;;9.69;71.42
45793;BME280;31495;42.740;22.908;2023-05-07T04:29:09;93331.16;;;9.54;71.72
45793;BME280;31495;42.740;22.908;2023-05-07T04:30:09;93349.06;;;9.63;71.52
45793;BME280;31495;42.740;22.908;2023-05-07T04:31:08;93340.28;;;9.64;71.79
45793;BME280;31495;42.740;22.908;2023-05-07T04:32:09;93315.88;;;9.46;71.60
45793;BME280;31495;42.740;22.908;2023-05-07T04:33:09;93367.72;;;9.85;71.75
45793;BME280;31495;42.740;22.908;2023-05-07T04:34:10;93360.75;;;9.85;72.05
45793;BME280;31495;42.740;22.908;2023-05-07T04:35:11;93359.78;;;9.86;71.88
45793;BME280;31495;42.740;22.908;2023-05-07T04:36:10;93315.66;;;9.61;72.06
45793;BME280;31495;42.740;22.908;2023-05-07T04:37:10;93344.28;;;9.80;71.89
45793;BME280;31495;42.740;22.908;2023-05-07T04:38:09;93323.81;;;9.71;72.20
45793;BME280;31495;42.740;22.908;2023-05-07T04:39:09;93338.72;;;9.83;72.32
45793;BME280;31495;42.740;22.908;2023-05-07T04:40:10;93363.34;;;10.05;72.39
45793;BME280;31495;42.740;22.908;2023-05-07T04:41:12;93339.09;;;9.86;72.50
45793;BME280;31495;42.740;22.908;2023-05-07T04:42:16;93330.75;;;9.84;72.57
45793;BME280;31495;42.740;22.908;2023-05-07T04:43:16;93365.72;;;10.14;72.34
45793;BME280;31495;42.740;22.908;2023-05-07T04:44:16;93364.91;;;10.13;72.46
45793;BME280;31495;42.740;22.908;2023-05-07T04:45:16;93371.28;;;10.24;72.54
45793;BME280;31495;42.740;22.908;2023-05-07T04:46:15;93339.28;;;10.05;72.59
45793;BME280;31495;42.740;22.908;2023-05-07T04:47:15;93348.41;;;10.14;72.54
45793;BME280;31495;42.740;22.908;2023-05-07T04:48:14;93375.47;;;10.38;72.38
45793;BME280;31495;42.740;22.908;2023-05-07T04:49:14;93369.91;;;10.41;72.43
45793;BME280;31495;42.740;22.908;2023-05-07T04:50:14;93366.69;;;10.46;72.34
45793;BME280;31495;42.740;22.908;2023-05-07T04:51:14;93370.06;;;10.46;72.42
45793;BME280;31495;42.740;22.908;2023-05-07T04:52:13;93362.31;;;10.46;72.41
45793;BME280;31495;42.740;22.908;2023-05-07T04:53:12;93324.34;;;10.27;72.30
45793;BME280;31495;42.740;22.908;2023-05-07T04:54:12;93339.25;;;10.45;72.40
45793;BME280;31495;42.740;22.908;2023-05-07T04:55:11;93308.44;;;10.23;72.87
45793;BME280;31495;42.740;22.908;2023-05-07T04:56:11;93343.81;;;10.50;72.67
45793;BME280;31495;42.740;22.908;2023-05-07T04:57:11;93347.59;;;10.47;72.86
45793;BME280;31495;42.740;22.908;2023-05-07T04:58:11;93314.97;;;10.33;73.21
45793;BME280;31495;42.740;22.908;2023-05-07T04:59:11;93334.84;;;10.45;73.04
45793;BME280;31495;42.740;22.908;2023-05-07T05:00:10;93337.63;;;10.51;72.85
45793;BME280;31495;42.740;22.908;2023-05-07T05:01:13;93359.88;;;10.65;72.77
45793;BME280;31495;42.740;22.908;2023-05-07T05:02:13;93373.13;;;10.82;72.62
45793;BME280;31495;42.740;22.908;2023-05-07T05:03:12;93356.06;;;10.74;72.49
45793;BME280;31495;42.740;22.908;2023-05-07T05:04:12;93342.75;;;10.64;72.13
45793;BME280;31495;42.740;22.908;2023-05-07T05:05:12;93372.31;;;10.88;72.33
45793;BME280;31495;42.740;22.908;2023-05-07T05:06:11;93295.25;;;10.45;72.25
45793;BME280;31495;42.740;22.908;2023-05-07T05:07:11;93367.94;;;10.95;72.27
45793;BME280;31495;42.740;22.908;2023-05-07T05:08:10;93370.28;;;10.97;72.42
45793;BME280;31495;42.740;22.908;2023-05-07T05:09:10;93327.41;;;10.69;72.23
45793;BME280;31495;42.740;22.908;2023-05-07T05:10:10;93328.19;;;10.76;72.16
45793;BME280;31495;42.740;22.908;2023-05-07T05:11:09;93345.25;;;10.91;72.22
45793;BME280;31495;42.740;22.908;2023-05-07T05:12:09;93274.53;;;10.52;72.21
45793;BME280;31495;42.740;22.908;2023-05-07T05:13:09;93364.22;;;11.16;72.11
45793;BME280;31495;42.740;22.908;2023-05-07T05:14:08;93365.63;;;11.19;72.19
45793;BME280;31495;42.740;22.908;2023-05-07T05:15:08;93363.81;;;11.19;72.23
45793;BME280;31495;42.740;22.908;2023-05-07T05:16:08;93341.81;;;11.03;72.23
45793;BME280;31495;42.740;22.908;2023-05-07T05:17:07;93363.97;;;11.25;72.20